»·PEaware :: FDX411 KDEN-KSEA

FDX411 :: KDEN-KSEA

FLIGHT INFORMATION

Flight Status: Arrived
Operator:
Federal Express
More flights by this operator :: More flights under this callsign
Pilot: Anonymous 5456 (5456)
Aircraft: BOEING 767-300
(B763)
More flights by this aircraft type
Origin: KDEN Denver Intl
United States
Destination: KSEA Seattle-Tacoma Intl
United States
More flights between these airports :: More routes between these airports
Route: +YAMMI3 LAR IDA PDT CHINS2
File this flight plan on PilotEdge
Remarks:
Altitude:
(Current/Filed)
38,000ft
Speed:
(Current/Filed)
480kts
Departed: 30-Sep-17 09:16 AM
Arrived: 30-Sep-17 11:54 AM
Distance/Time
Traveled:
888nm/2:37
Distance/Time
To Go:
Arrived

Flight Plot

Page will automatically refresh every two minutes.


Map Options




Map Legend


Flown Route
Filed Route
Departure Airport
Arrival Airport
Navaid (VOR, NDB)
Fix

Horizontal Profiles

Position Reports

Time Latitude Longitude Heading Altitude Ground
Speed
30-Sep-17 08:51 39.830823 -104.674832 359 5442ft 0kts
30-Sep-17 08:52 39.830823 -104.674832 359 5442ft 0kts
30-Sep-17 08:53 39.830823 -104.674832 359 5442ft 0kts
30-Sep-17 08:54 39.830823 -104.674832 359 5442ft 0kts
30-Sep-17 08:55 39.830823 -104.674832 359 5442ft 0kts
30-Sep-17 08:56 39.830823 -104.674832 359 5442ft 0kts
30-Sep-17 08:57 39.830823 -104.674832 359 5442ft 0kts
30-Sep-17 08:58 39.830823 -104.674832 359 5442ft 0kts
30-Sep-17 08:59 39.830823 -104.674832 359 5442ft 0kts
30-Sep-17 09:00 39.830640 -104.674832 359 5442ft 2kts
30-Sep-17 09:01 39.830168 -104.675174 66 5442ft 2kts
30-Sep-17 09:02 39.830124 -104.675496 91 5442ft 0kts
30-Sep-17 09:03 39.830124 -104.675496 91 5442ft 0kts
30-Sep-17 09:04 39.830124 -104.675496 91 5442ft 0kts
30-Sep-17 09:05 39.830105 -104.674491 91 5442ft 6kts
30-Sep-17 09:06 39.829377 -104.670512 92 5442ft 12kts
30-Sep-17 09:07 39.829342 -104.665475 89 5442ft 15kts
30-Sep-17 09:08 39.831415 -104.662668 359 5442ft 13kts
30-Sep-17 09:09 39.835322 -104.662623 0 5442ft 14kts
30-Sep-17 09:10 39.839373 -104.662558 0 5442ft 14kts
30-Sep-17 09:11 39.844681 -104.662503 0 5442ft 21kts
30-Sep-17 09:12 39.850807 -104.662428 0 5442ft 21kts
30-Sep-17 09:13 39.856752 -104.662370 0 5442ft 20kts
30-Sep-17 09:14 39.862370 -104.662290 0 5442ft 19kts
30-Sep-17 09:15 39.867695 -104.662234 359 5442ft 18kts
30-Sep-17 09:16 39.870729 -104.662303 326 5442ft 14kts
30-Sep-17 09:17 39.865845 -104.663447 179 5442ft 29kts
30-Sep-17 09:18 39.861085 -104.662192 88 5442ft 13kts
30-Sep-17 09:19 39.860319 -104.660179 180 5442ft 3kts
30-Sep-17 09:20 39.826604 -104.660434 182 6646ft 202kts
30-Sep-17 09:21 39.777538 -104.606525 121 9374ft 282kts
30-Sep-17 09:22 39.783667 -104.505386 73 9985ft 289kts
30-Sep-17 09:23 39.816033 -104.406761 44 10575ft 347kts
30-Sep-17 09:24 39.908691 -104.379016 352 14438ft 375kts
30-Sep-17 09:25 40.012212 -104.379864 356 18266ft 390kts
30-Sep-17 09:26 40.107403 -104.428935 319 21577ft 389kts
30-Sep-17 09:27 40.193395 -104.510036 318 24596ft 404kts
30-Sep-17 09:28 40.286030 -104.596072 318 27200ft 422kts
30-Sep-17 09:29 40.381119 -104.688399 317 29547ft 438kts
30-Sep-17 09:30 40.479060 -104.785007 316 31673ft 453kts
30-Sep-17 09:31 40.565036 -104.869462 317 33624ft 458kts
30-Sep-17 09:32 40.664309 -104.962742 317 36008ft 450kts
30-Sep-17 09:33 40.760134 -105.062650 312 37788ft 442kts
30-Sep-17 09:34 40.852648 -105.166928 312 38171ft 439kts
30-Sep-17 09:35 40.929175 -105.253605 312 38183ft 439kts
30-Sep-17 09:36 41.035525 -105.374463 312 38182ft 439kts
30-Sep-17 09:37 41.122912 -105.474171 312 38175ft 439kts
30-Sep-17 09:38 41.214725 -105.579318 312 38175ft 440kts
30-Sep-17 09:39 41.304968 -105.683068 311 38187ft 439kts
30-Sep-17 09:40 41.362587 -105.788524 291 38194ft 421kts
30-Sep-17 09:41 41.416143 -105.925841 291 38183ft 420kts
30-Sep-17 09:42 41.468861 -106.064087 291 38131ft 421kts
30-Sep-17 09:43 41.521145 -106.202101 291 38036ft 422kts
30-Sep-17 09:44 41.582305 -106.364411 291 37992ft 421kts
30-Sep-17 09:45 41.625713 -106.480167 291 37990ft 422kts
30-Sep-17 09:46 41.677666 -106.619340 291 37990ft 422kts
30-Sep-17 09:47 41.728341 -106.755726 290 37998ft 421kts
30-Sep-17 09:48 41.780040 -106.895547 290 37997ft 421kts
30-Sep-17 09:49 41.831086 -107.034278 290 38010ft 421kts
30-Sep-17 09:50 41.882435 -107.174523 290 38153ft 422kts
30-Sep-17 09:51 41.933581 -107.314895 290 38155ft 421kts
30-Sep-17 09:52 41.982000 -107.448436 290 38155ft 421kts
30-Sep-17 09:53 42.032766 -107.589128 290 38154ft 422kts
30-Sep-17 09:54 42.081774 -107.725603 290 38162ft 421kts
30-Sep-17 09:55 42.129786 -107.859959 290 38155ft 421kts
30-Sep-17 09:56 42.180130 -108.001542 290 38154ft 422kts
30-Sep-17 09:57 42.230206 -108.143073 290 38082ft 422kts
30-Sep-17 09:58 42.280237 -108.285199 290 38045ft 422kts
30-Sep-17 09:59 42.330377 -108.428328 288 38053ft 437kts
30-Sep-17 10:00 42.381274 -108.574423 288 38038ft 435kts
30-Sep-17 10:01 42.429962 -108.714933 287 38051ft 436kts
30-Sep-17 10:02 42.480684 -108.862023 287 38049ft 436kts
30-Sep-17 10:03 42.531395 -109.009885 287 38049ft 437kts
30-Sep-17 10:04 42.582142 -109.158655 287 38049ft 438kts
30-Sep-17 10:05 42.630635 -109.301759 291 38029ft 405kts
30-Sep-17 10:06 42.677805 -109.441343 291 38069ft 412kts
30-Sep-17 10:07 42.725027 -109.581935 291 38150ft 411kts
30-Sep-17 10:08 42.770833 -109.719025 290 38160ft 411kts
30-Sep-17 10:09 42.817555 -109.859571 290 38158ft 411kts
30-Sep-17 10:10 42.863853 -109.999577 290 38157ft 411kts
30-Sep-17 10:11 42.909703 -110.138945 290 38155ft 411kts
30-Sep-17 10:12 42.955337 -110.278390 290 38155ft 411kts
30-Sep-17 10:13 43.000666 -110.417602 290 38153ft 411kts
30-Sep-17 10:14 43.045978 -110.557565 291 38121ft 412kts
30-Sep-17 10:15 43.090585 -110.695810 289 38134ft 413kts
30-Sep-17 10:16 43.134453 -110.832772 290 38129ft 412kts
30-Sep-17 10:17 43.179885 -110.975262 290 38129ft 413kts
30-Sep-17 10:18 43.224961 -111.117388 290 38128ft 413kts
30-Sep-17 10:19 43.270437 -111.261478 289 38120ft 430kts
30-Sep-17 10:20 43.318008 -111.413207 289 38127ft 440kts
30-Sep-17 10:21 43.362663 -111.556378 289 38126ft 439kts
30-Sep-17 10:22 43.406792 -111.698634 288 38057ft 437kts
30-Sep-17 10:23 43.452587 -111.847088 288 38050ft 438kts
30-Sep-17 10:24 43.498493 -111.996751 288 38048ft 437kts
30-Sep-17 10:25 43.548230 -112.145461 291 38049ft 439kts
30-Sep-17 10:26 43.600855 -112.292331 291 38047ft 439kts
30-Sep-17 10:27 43.653471 -112.440143 291 38046ft 439kts
30-Sep-17 10:28 43.706240 -112.589216 292 38049ft 438kts
30-Sep-17 10:29 43.754812 -112.727152 292 38049ft 428kts
30-Sep-17 10:30 43.806183 -112.873764 292 38050ft 429kts
30-Sep-17 10:31 43.857151 -113.020033 292 38050ft 430kts
30-Sep-17 10:32 43.907899 -113.166459 291 38049ft 430kts
30-Sep-17 10:33 43.958464 -113.313135 291 38021ft 430kts
30-Sep-17 10:34 44.009157 -113.461007 291 38020ft 431kts
30-Sep-17 10:35 44.059465 -113.608545 291 38019ft 431kts
30-Sep-17 10:36 44.106736 -113.747910 291 38022ft 431kts
30-Sep-17 10:37 44.155035 -113.891067 291 38021ft 432kts
30-Sep-17 10:38 44.203665 -114.035979 291 38019ft 432kts
30-Sep-17 10:39 44.253275 -114.184630 291 38019ft 433kts
30-Sep-17 10:40 44.302871 -114.334067 291 38018ft 433kts
30-Sep-17 10:41 44.352542 -114.484575 291 38016ft 434kts
30-Sep-17 10:42 44.402025 -114.635383 291 38016ft 434kts
30-Sep-17 10:43 44.444639 -114.765940 290 38023ft 434kts
30-Sep-17 10:44 44.493301 -114.915822 290 38022ft 435kts
30-Sep-17 10:45 44.542019 -115.066737 290 38051ft 435kts
30-Sep-17 10:46 44.590934 -115.219148 290 38074ft 436kts
30-Sep-17 10:47 44.639849 -115.372446 290 38047ft 436kts
30-Sep-17 10:48 44.688891 -115.527135 290 38054ft 445kts
30-Sep-17 10:49 44.736824 -115.679070 289 38048ft 442kts
30-Sep-17 10:50 44.785561 -115.834543 289 38050ft 443kts
30-Sep-17 10:51 44.834603 -115.991957 290 38048ft 443kts
30-Sep-17 10:52 44.883369 -116.149489 290 38041ft 433kts
30-Sep-17 10:53 44.931024 -116.304282 290 38052ft 436kts
30-Sep-17 10:54 44.975410 -116.449324 290 38047ft 435kts
30-Sep-17 10:55 45.022515 -116.604183 290 38046ft 435kts
30-Sep-17 10:56 45.067750 -116.753773 290 38051ft 435kts
30-Sep-17 10:57 45.112780 -116.903572 290 38047ft 435kts
30-Sep-17 10:58 45.158864 -117.057813 290 38078ft 434kts
30-Sep-17 10:59 45.205246 -117.214007 290 38101ft 435kts
30-Sep-17 11:00 45.251436 -117.370529 290 38126ft 435kts
30-Sep-17 11:01 45.297135 -117.526357 290 38125ft 434kts
30-Sep-17 11:02 45.341687 -117.679245 289 38123ft 439kts
30-Sep-17 11:03 45.387070 -117.835925 289 38117ft 431kts
30-Sep-17 11:04 45.432444 -117.993579 289 38132ft 435kts
30-Sep-17 11:05 45.477641 -118.151618 289 38128ft 434kts
30-Sep-17 11:06 45.522574 -118.309762 289 38127ft 434kts
30-Sep-17 11:07 45.567091 -118.467455 289 38127ft 434kts
30-Sep-17 11:08 45.611166 -118.624599 289 38125ft 434kts
30-Sep-17 11:09 45.652170 -118.771703 288 38131ft 433kts
30-Sep-17 11:10 45.697140 -118.930020 294 38123ft 435kts
30-Sep-17 11:11 45.773256 -119.065448 307 38133ft 442kts
30-Sep-17 11:12 45.852091 -119.198324 306 38129ft 441kts
30-Sep-17 11:13 45.930861 -119.332268 306 38110ft 453kts
30-Sep-17 11:14 46.009183 -119.466138 306 38096ft 439kts
30-Sep-17 11:15 46.087269 -119.600269 306 38099ft 440kts
30-Sep-17 11:16 46.161471 -119.728317 306 38103ft 440kts
30-Sep-17 11:17 46.239047 -119.862835 306 38102ft 439kts
30-Sep-17 11:18 46.316533 -119.997876 306 38100ft 450kts
30-Sep-17 11:19 46.393444 -120.132419 305 38098ft 419kts
30-Sep-17 11:20 46.461478 -120.252197 306 37710ft 376kts
30-Sep-17 11:21 46.527298 -120.368530 307 35087ft 390kts
30-Sep-17 11:22 46.590462 -120.486103 302 32438ft 374kts
30-Sep-17 11:23 46.648117 -120.607375 302 30845ft 380kts
30-Sep-17 11:24 46.697231 -120.710553 301 29433ft 381kts
30-Sep-17 11:25 46.747746 -120.817119 302 28022ft 382kts
30-Sep-17 11:26 46.797902 -120.923262 302 26588ft 369kts
30-Sep-17 11:27 46.847524 -121.028708 301 25187ft 357kts
30-Sep-17 11:28 46.896605 -121.133412 301 23802ft 345kts
30-Sep-17 11:29 46.943947 -121.234797 301 22531ft 343kts
30-Sep-17 11:30 46.996122 -121.346968 301 20646ft 348kts
30-Sep-17 11:31 47.047723 -121.458239 301 20404ft 324kts
30-Sep-17 11:32 47.094954 -121.560567 301 19197ft 312kts
30-Sep-17 11:33 47.136563 -121.651096 300 17283ft 316kts
30-Sep-17 11:34 47.170796 -121.725782 301 16211ft 318kts
30-Sep-17 11:35 47.217819 -121.828643 301 14866ft 310kts
30-Sep-17 11:36 47.263448 -121.928813 301 13847ft 298kts
30-Sep-17 11:37 47.307692 -122.026328 302 12734ft 301kts
30-Sep-17 11:38 47.351079 -122.115006 322 11011ft 275kts
30-Sep-17 11:39 47.423111 -122.116701 5 9707ft 291kts
30-Sep-17 11:40 47.494747 -122.100928 5 8512ft 297kts
30-Sep-17 11:41 47.572157 -122.086675 5 7128ft 296kts
30-Sep-17 11:42 47.643175 -122.075126 5 5423ft 273kts
30-Sep-17 11:43 47.712638 -122.066345 346 3758ft 242kts
30-Sep-17 11:44 47.738400 -122.132849 275 3080ft 183kts
30-Sep-17 11:45 47.743769 -122.200789 275 2991ft 183kts
30-Sep-17 11:46 47.749328 -122.270927 275 2975ft 182kts
30-Sep-17 11:47 47.755068 -122.343184 275 2973ft 183kts
30-Sep-17 11:48 47.760944 -122.416992 275 2973ft 183kts
30-Sep-17 11:49 47.740308 -122.467373 166 2960ft 184kts
30-Sep-17 11:50 47.714384 -122.405940 115 2981ft 189kts
30-Sep-17 11:51 47.686816 -122.362691 145 2983ft 187kts
30-Sep-17 11:52 47.648758 -122.320960 145 2974ft 186kts
30-Sep-17 11:53 47.594537 -122.307060 181 2979ft 180kts
30-Sep-17 11:54 47.557619 -122.307045 182 2285ft 155kts
30-Sep-17 11:55 47.521354 -122.307301 182 1503ft 135kts
30-Sep-17 11:56 47.486670 -122.307593 182 915ft 135kts
30-Sep-17 11:57 47.452018 -122.307859 181 445ft 96kts
30-Sep-17 11:58 47.443702 -122.307794 129 444ft 4kts
30-Sep-17 11:59 47.445104 -122.306298 0 444ft 19kts
30-Sep-17 12:00 47.450614 -122.305136 12 444ft 19kts
30-Sep-17 12:01 47.456024 -122.304995 0 444ft 22kts
30-Sep-17 12:02 47.461175 -122.304980 0 444ft 13kts
30-Sep-17 12:03 47.461616 -122.301684 131 444ft 10kts

Navigation Log

Ident Type
1. KDEN Airport
2. LASSS Fix
3. SPYCE Fix
4. TURBN Fix
5. CHICN Fix
6. FAARM Fix
7. SOLLO Fix
8. WINDL Fix
9. YAMMI Fix
10. IDA Navaid
11. PDT Navaid
12. BRUKK Fix
13. SUNED Fix
14. YKM Navaid
15. CHINS Fix
16. RADDY Fix
17. HUMPP Fix
18. AUBRN Fix
19. KSEA Airport